Time;durP1;ratioP1;P1;durP2;ratioP2;P2;SDS_P1;SDS_P2;PMS_P1;PMS_P2;Temp;Humidity;BMP_temperature;BMP_pressure;BME280_temperature;BME280_humidity;BME280_pressure;Samples;Min_cycle;Max_cycle;Signal;HPM_P1;HPM_P2
2022/12/07 00:01:11;;;;;;;81.10;21.77;;;0.80;99.90;;;;;;4392399;28;659910;-67
2022/12/07 00:04:04;;;;;;;60.37;20.10;;;0.80;99.90;;;;;;4407015;28;660420;-66
2022/12/07 00:06:52;;;;;;;67.50;21.50;;;0.80;99.90;;;;;;4371590;28;659048;-67
2022/12/07 00:09:41;;;;;;;110.77;20.90;;;0.70;99.90;;;;;;4412299;28;659301;-67
2022/12/07 00:12:28;;;;;;;77.90;22.58;;;0.80;99.90;;;;;;4388850;28;660938;-67
2022/12/07 00:15:17;;;;;;;85.80;22.30;;;0.80;99.90;;;;;;4391855;28;658486;-67
2022/12/07 00:18:04;;;;;;;74.27;20.73;;;0.80;99.90;;;;;;4413317;28;660189;-66
2022/12/07 00:20:51;;;;;;;81.40;20.93;;;0.70;99.90;;;;;;4391808;28;658671;-67
2022/12/07 00:23:38;;;;;;;75.07;21.00;;;0.80;99.90;;;;;;4411212;28;659850;-66
2022/12/07 00:26:26;;;;;;;81.13;19.13;;;0.80;99.90;;;;;;4388557;28;658392;-67
2022/12/07 00:29:16;;;;;;;88.57;21.00;;;0.80;99.90;;;;;;4408212;28;660192;-66
2022/12/07 00:32:05;;;;;;;82.60;18.83;;;0.90;99.90;;;;;;4384416;28;659434;-67
2022/12/07 00:34:52;;;;;;;83.80;19.50;;;0.80;99.90;;;;;;4389842;28;659975;-66
2022/12/07 00:37:39;;;;;;;64.33;17.17;;;0.90;99.90;;;;;;4409646;28;658394;-66
2022/12/07 00:40:26;;;;;;;83.40;18.87;;;0.80;99.90;;;;;;4394595;28;660216;-66
2022/12/07 00:43:13;;;;;;;48.85;17.90;;;0.80;99.90;;;;;;4409842;28;660863;-66
2022/12/07 00:46:01;;;;;;;46.73;17.57;;;0.90;99.90;;;;;;4391789;28;658686;-66
2022/12/07 00:48:51;;;;;;;46.40;15.13;;;0.90;99.90;;;;;;4414170;28;658418;-66
2022/12/07 00:51:38;;;;;;;51.93;16.43;;;0.90;99.90;;;;;;4388403;28;659725;-67
2022/12/07 00:54:25;;;;;;;48.73;14.50;;;0.90;99.90;;;;;;4388965;28;659736;-67
2022/12/07 00:57:12;;;;;;;31.97;12.57;;;0.90;99.90;;;;;;4412489;28;660025;-66
2022/12/07 01:00:00;;;;;;;23.93;8.87;;;0.90;99.90;;;;;;4409994;28;659141;-66
2022/12/07 01:02:47;;;;;;;23.93;11.37;;;0.90;99.90;;;;;;4389807;28;659656;-66
2022/12/07 01:05:35;;;;;;;21.95;10.77;;;0.80;99.90;;;;;;4407127;28;659456;-66
2022/12/07 01:08:23;;;;;;;23.47;12.20;;;0.70;99.90;;;;;;4390216;28;659377;-67
2022/12/07 01:11:12;;;;;;;19.67;9.97;;;0.80;99.90;;;;;;4393142;28;658756;-67
2022/12/07 01:14:00;;;;;;;17.58;9.30;;;0.80;99.90;;;;;;4415851;28;657158;-67
2022/12/07 01:16:47;;;;;;;21.40;10.30;;;0.80;99.90;;;;;;4390792;28;658257;-67
2022/12/07 01:19:34;;;;;;;17.00;8.03;;;0.70;99.90;;;;;;4409558;28;659339;-66
2022/12/07 01:22:22;;;;;;;23.40;10.67;;;0.70;99.90;;;;;;4390983;28;657540;-66
2022/12/07 01:25:11;;;;;;;27.70;9.57;;;0.80;99.90;;;;;;4408605;28;658462;-67
2022/12/07 01:27:58;;;;;;;19.67;10.00;;;0.80;99.90;;;;;;4417355;28;658307;-65
2022/12/07 01:30:45;;;;;;;18.85;10.07;;;0.80;99.90;;;;;;4393170;28;658423;-66
2022/12/07 01:33:33;;;;;;;21.67;10.57;;;0.80;99.90;;;;;;4408362;28;659397;-66
2022/12/07 01:36:21;;;;;;;20.37;10.10;;;0.70;99.90;;;;;;4395852;28;658426;-67
2022/12/07 01:39:11;;;;;;;26.77;11.40;;;0.70;99.90;;;;;;4411364;28;659144;-66
2022/12/07 01:41:58;;;;;;;22.92;11.40;;;0.70;99.90;;;;;;4388781;28;660772;-66
2022/12/07 01:45:26;;;;;;;24.57;12.33;;;0.60;99.90;;;;;;4388782;28;658903;-66
2022/12/07 01:48:15;;;;;;;28.52;12.82;;;0.60;99.90;;;;;;4366060;28;659617;-65
2022/12/07 01:51:04;;;;;;;28.83;12.77;;;0.60;99.90;;;;;;4391223;28;660106;-66
2022/12/07 01:53:51;;;;;;;26.07;11.83;;;0.70;99.90;;;;;;4393724;28;659238;-66
2022/12/07 01:56:39;;;;;;;29.90;12.50;;;0.70;99.90;;;;;;4407556;28;659536;-66
2022/12/07 01:59:27;;;;;;;25.23;10.50;;;0.70;99.90;;;;;;4386382;28;658302;-66
2022/12/07 02:02:19;;;;;;;30.37;13.13;;;0.70;99.90;;;;;;4406593;28;659311;-65
2022/12/07 02:05:07;;;;;;;30.03;13.67;;;0.70;99.90;;;;;;4387159;28;658864;-66
2022/12/07 02:07:56;;;;;;;27.33;12.53;;;0.70;99.90;;;;;;4406311;28;659078;-66
2022/12/07 02:10:43;;;;;;;26.80;13.03;;;0.70;99.90;;;;;;4382916;28;659140;-66
2022/12/07 02:13:32;;;;;;;33.87;12.77;;;0.70;99.90;;;;;;4393043;28;658638;-66
2022/12/07 02:16:26;;;;;;;25.33;11.90;;;0.80;99.90;;;;;;4408138;28;658718;-67
2022/12/07 02:19:28;;;;;;;28.23;12.17;;;0.70;99.90;;;;;;4391218;28;659063;-66
2022/12/07 02:22:25;;;;;;;27.33;12.33;;;0.80;99.90;;;;;;4376150;28;659183;-66
2022/12/07 02:25:15;;;;;;;25.35;12.00;;;0.80;99.90;;;;;;4395430;28;658896;-66
2022/12/07 02:28:04;;;;;;;30.13;12.80;;;0.80;99.90;;;;;;4392496;28;660043;-66
2022/12/07 02:30:52;;;;;;;27.73;12.20;;;0.70;99.90;;;;;;4394674;28;660905;-66
2022/12/07 02:33:42;;;;;;;31.57;13.47;;;0.80;99.90;;;;;;4413835;28;658650;-67
2022/12/07 02:36:31;;;;;;;31.73;14.00;;;0.80;99.90;;;;;;4415094;28;659086;-66
2022/12/07 02:39:19;;;;;;;37.33;15.00;;;0.70;99.90;;;;;;4390417;28;659365;-65
2022/12/07 02:42:10;;;;;;;43.43;14.13;;;0.70;99.90;;;;;;4392905;28;659664;-66
2022/12/07 02:44:57;;;;;;;41.97;15.07;;;0.70;99.90;;;;;;4395869;28;659100;-65
2022/12/07 02:47:46;;;;;;;64.63;15.87;;;0.80;99.90;;;;;;4413366;28;659145;-65
2022/12/07 02:50:33;;;;;;;54.63;14.63;;;0.80;99.90;;;;;;4388806;28;659571;-65
2022/12/07 02:53:34;;;;;;;42.40;14.60;;;0.80;99.90;;;;;;4391534;28;658912;-66
2022/12/07 02:56:25;;;;;;;67.53;15.55;;;0.70;99.90;;;;;;4364731;28;659499;-66
2022/12/07 02:59:16;;;;;;;50.00;15.67;;;0.70;99.90;;;;;;4389706;28;660438;-66
2022/12/07 03:02:09;;;;;;;46.27;16.03;;;0.70;99.90;;;;;;4824239;28;659122;-65
2022/12/07 03:05:04;;;;;;;81.77;17.67;;;0.70;99.90;;;;;;4394409;28;658554;-65
2022/12/07 03:07:56;;;;;;;52.00;16.00;;;0.70;99.90;;;;;;4392433;28;659716;-66
2022/12/07 03:10:49;;;;;;;107.10;16.93;;;0.80;99.90;;;;;;4390106;28;660019;-65
2022/12/07 03:13:40;;;;;;;94.07;17.93;;;0.80;99.90;;;;;;4390883;28;659731;-66
2022/12/07 03:16:28;;;;;;;68.87;16.07;;;0.70;99.90;;;;;;4388405;28;660545;-65
2022/12/07 03:19:17;;;;;;;105.22;16.60;;;0.70;99.90;;;;;;4398338;28;658443;-67
2022/12/07 03:22:08;;;;;;;93.87;16.70;;;0.70;99.90;;;;;;4413691;28;660249;-66
2022/12/07 03:24:57;;;;;;;102.53;16.98;;;0.70;99.90;;;;;;4392101;28;658714;-66
2022/12/07 03:27:47;;;;;;;38.47;15.00;;;0.70;99.90;;;;;;4410871;28;659908;-67
2022/12/07 03:30:36;;;;;;;48.53;14.80;;;0.70;99.90;;;;;;4408318;28;658389;-67
2022/12/07 03:33:25;;;;;;;37.93;14.73;;;0.70;99.90;;;;;;4390538;28;659865;-66
2022/12/07 03:36:14;;;;;;;35.07;14.87;;;0.70;99.90;;;;;;4389600;28;659326;-66
2022/12/07 03:39:05;;;;;;;39.50;15.27;;;0.70;99.90;;;;;;4395626;28;659503;-66
2022/12/07 03:41:52;;;;;;;37.57;14.70;;;0.80;99.90;;;;;;4386441;28;660369;-65
2022/12/07 03:44:40;;;;;;;30.00;13.83;;;0.70;99.90;;;;;;4407386;28;659370;-66
2022/12/07 03:47:29;;;;;;;29.93;14.40;;;0.80;99.90;;;;;;4386594;28;660015;-66
2022/12/07 03:50:18;;;;;;;30.80;13.63;;;0.80;99.90;;;;;;4394086;28;658844;-66
2022/12/07 03:53:06;;;;;;;28.65;13.98;;;0.80;99.90;;;;;;4395204;28;658655;-67
2022/12/07 03:55:55;;;;;;;31.30;12.83;;;0.70;99.90;;;;;;4414085;28;659237;-65
2022/12/07 03:58:42;;;;;;;31.40;14.17;;;0.70;99.90;;;;;;4396395;28;659103;-66
2022/12/07 04:01:29;;;;;;;34.10;15.00;;;0.80;99.90;;;;;;4412088;28;658476;-66
2022/12/07 04:04:16;;;;;;;23.93;11.57;;;0.80;99.90;;;;;;4393278;28;658325;-65
2022/12/07 04:07:04;;;;;;;31.93;15.43;;;0.80;99.90;;;;;;4408783;28;658473;-65
2022/12/07 04:09:51;;;;;;;35.77;15.30;;;0.70;99.90;;;;;;4395652;28;658490;-67
2022/12/07 04:12:39;;;;;;;36.53;16.57;;;0.70;99.90;;;;;;4413381;28;659339;-66
2022/12/07 04:15:27;;;;;;;41.87;16.23;;;0.70;99.90;;;;;;4388925;28;659064;-67
2022/12/07 04:18:14;;;;;;;41.10;16.43;;;0.70;99.90;;;;;;4409630;28;659234;-66
2022/12/07 04:21:01;;;;;;;43.13;17.40;;;0.60;99.90;;;;;;4392386;28;659420;-66
2022/12/07 04:23:48;;;;;;;30.53;12.53;;;0.70;99.90;;;;;;4409719;28;659860;-66
2022/12/07 04:26:36;;;;;;;47.30;18.33;;;0.80;99.90;;;;;;4389181;28;658592;-67
2022/12/07 04:29:25;;;;;;;41.17;17.67;;;0.80;99.90;;;;;;4408618;28;659921;-67
2022/12/07 04:32:12;;;;;;;40.73;17.93;;;0.80;99.90;;;;;;4385263;28;659091;-66
2022/12/07 04:34:59;;;;;;;51.27;19.17;;;0.80;99.90;;;;;;4416036;28;658886;-66
2022/12/07 04:37:46;;;;;;;43.00;18.70;;;0.80;99.90;;;;;;4391215;28;658718;-67
2022/12/07 04:40:33;;;;;;;44.40;19.20;;;0.80;99.90;;;;;;4409267;28;659910;-66
2022/12/07 04:43:20;;;;;;;45.67;18.50;;;0.80;99.90;;;;;;4391336;28;658446;-67
2022/12/07 04:46:09;;;;;;;41.73;18.33;;;0.80;99.90;;;;;;4407158;28;660134;-66
2022/12/07 04:48:56;;;;;;;34.80;16.10;;;0.80;99.90;;;;;;4394507;28;658766;-67
2022/12/07 04:51:43;;;;;;;39.95;17.23;;;0.80;99.90;;;;;;4408008;28;659799;-66
2022/12/07 04:54:30;;;;;;;38.93;17.37;;;0.90;99.90;;;;;;4387291;28;658830;-67
2022/12/07 04:57:17;;;;;;;37.87;16.73;;;0.90;99.90;;;;;;4413012;28;658736;-66
2022/12/07 05:00:06;;;;;;;40.63;17.47;;;0.80;99.90;;;;;;4408183;28;658771;-68
2022/12/07 05:02:55;;;;;;;34.27;16.50;;;0.80;99.90;;;;;;4879259;28;536061;-67
2022/12/07 05:05:42;;;;;;;38.50;17.50;;;0.80;99.90;;;;;;4386327;28;658937;-66
2022/12/07 05:08:29;;;;;;;39.40;16.70;;;0.80;99.90;;;;;;4407439;28;659794;-66
2022/12/07 05:14:18;;;;;;;30.20;13.73;;;0.70;99.90;;;;;;4363976;28;659414;-67
2022/12/07 05:17:06;;;;;;;30.50;14.00;;;0.80;99.90;;;;;;4387291;28;658707;-67
2022/12/07 05:19:54;;;;;;;30.20;14.33;;;0.80;99.90;;;;;;4418684;28;659877;-66
2022/12/07 05:22:41;;;;;;;30.87;14.17;;;0.80;99.90;;;;;;4394001;28;658767;-67
2022/12/07 05:25:28;;;;;;;28.07;13.50;;;0.70;99.90;;;;;;4412843;28;659879;-66
2022/12/07 05:28:16;;;;;;;38.03;14.80;;;0.80;99.90;;;;;;4386958;28;658252;-67
2022/12/07 05:31:03;;;;;;;36.33;15.00;;;0.80;99.90;;;;;;4417747;28;660160;-66
2022/12/07 05:33:50;;;;;;;31.00;14.60;;;0.80;99.90;;;;;;4401927;28;659503;-67
2022/12/07 05:36:39;;;;;;;30.60;13.63;;;0.80;99.90;;;;;;4410336;28;659564;-66
2022/12/07 05:39:26;;;;;;;35.50;14.87;;;0.70;99.90;;;;;;4387510;28;658780;-66
2022/12/07 05:42:13;;;;;;;35.73;16.73;;;0.70;99.90;;;;;;4411980;28;659239;-66
2022/12/07 05:45:00;;;;;;;32.70;15.20;;;0.70;99.90;;;;;;4389402;28;659122;-67
2022/12/07 05:47:47;;;;;;;36.13;15.87;;;0.60;99.90;;;;;;4410760;28;659444;-66
2022/12/07 05:50:34;;;;;;;30.07;13.67;;;0.70;99.90;;;;;;4406493;28;658887;-68
2022/12/07 05:53:23;;;;;;;37.77;16.93;;;0.60;99.90;;;;;;4398572;28;659620;-66
2022/12/07 05:56:10;;;;;;;35.57;16.67;;;0.70;99.90;;;;;;4394619;28;658854;-67
2022/12/07 06:02:03;;;;;;;38.93;16.23;;;0.60;99.90;;;;;;4363336;28;660256;-66
2022/12/07 06:04:50;;;;;;;38.35;16.60;;;0.60;99.90;;;;;;4395793;28;658656;-66
2022/12/07 06:07:37;;;;;;;38.07;15.80;;;0.60;99.90;;;;;;4414355;28;659512;-65
2022/12/07 06:10:26;;;;;;;37.83;16.23;;;0.70;99.90;;;;;;4403306;28;659082;-66
2022/12/07 06:13:13;;;;;;;36.43;14.33;;;0.60;99.90;;;;;;4408860;28;659853;-65
2022/12/07 06:16:00;;;;;;;49.13;13.67;;;0.70;99.90;;;;;;4396008;28;658828;-66
2022/12/07 06:18:47;;;;;;;36.40;15.33;;;0.70;99.90;;;;;;4412374;28;658840;-65
2022/12/07 06:21:34;;;;;;;37.80;16.10;;;0.70;99.90;;;;;;4420291;28;659422;-65
2022/12/07 06:24:22;;;;;;;44.27;18.37;;;0.60;99.90;;;;;;4387867;28;659650;-66
2022/12/07 06:27:10;;;;;;;47.15;17.73;;;0.60;99.90;;;;;;4406900;28;658658;-65
2022/12/07 06:29:58;;;;;;;36.40;14.97;;;0.50;99.90;;;;;;4386371;28;660276;-65
2022/12/07 06:32:45;;;;;;;49.53;18.93;;;0.50;99.90;;;;;;4402183;28;658394;-66
2022/12/07 06:35:33;;;;;;;40.97;16.73;;;0.60;99.90;;;;;;4408517;28;658596;-65
2022/12/07 06:38:20;;;;;;;42.20;18.07;;;0.60;99.90;;;;;;4393132;28;658174;-66
2022/12/07 06:41:07;;;;;;;44.87;18.13;;;0.60;99.90;;;;;;4408392;28;659383;-66
2022/12/07 06:43:56;;;;;;;37.87;15.60;;;0.60;99.90;;;;;;4409284;28;658914;-66
2022/12/07 06:46:43;;;;;;;43.77;18.40;;;0.60;99.90;;;;;;4386134;28;659525;-65
2022/12/07 06:49:30;;;;;;;37.97;15.88;;;0.60;99.90;;;;;;4393678;28;658707;-67
2022/12/07 06:52:17;;;;;;;46.87;18.93;;;0.50;99.90;;;;;;4416206;28;661150;-66
2022/12/07 06:55:05;;;;;;;32.57;14.13;;;0.60;99.90;;;;;;4416943;28;658323;-66
2022/12/07 06:57:52;;;;;;;39.47;17.17;;;0.60;99.90;;;;;;4389988;28;659557;-66
2022/12/07 07:00:41;;;;;;;38.87;17.37;;;0.60;99.90;;;;;;4527519;28;658313;-65
2022/12/07 07:03:28;;;;;;;43.73;18.83;;;0.60;99.90;;;;;;4749056;28;535423;-66
2022/12/07 07:06:15;;;;;;;45.53;19.33;;;0.60;99.90;;;;;;4394470;28;658436;-67
2022/12/07 07:09:03;;;;;;;42.73;17.73;;;0.60;99.90;;;;;;4412655;28;659808;-66
2022/12/07 07:11:50;;;;;;;45.67;19.23;;;0.60;99.90;;;;;;4408759;28;658603;-67
2022/12/07 07:14:37;;;;;;;45.53;20.13;;;0.60;99.90;;;;;;4415297;28;658513;-66
2022/12/07 07:17:26;;;;;;;44.60;19.23;;;0.60;99.90;;;;;;4408364;28;658346;-66
2022/12/07 07:20:13;;;;;;;41.93;19.10;;;0.60;99.90;;;;;;4391708;28;658752;-67
2022/12/07 07:23:00;;;;;;;48.80;20.83;;;0.70;99.90;;;;;;4389067;28;658844;-66
2022/12/07 07:25:48;;;;;;;51.40;21.47;;;0.70;99.90;;;;;;4411979;28;660235;-67
2022/12/07 07:28:35;;;;;;;45.00;18.57;;;0.60;99.90;;;;;;4406000;28;658793;-67
2022/12/07 07:31:22;;;;;;;43.63;19.70;;;0.70;99.90;;;;;;4410842;28;658888;-66
2022/12/07 07:34:11;;;;;;;37.10;16.17;;;0.70;99.90;;;;;;4411193;28;658085;-66
2022/12/07 07:36:58;;;;;;;40.23;17.07;;;0.70;99.90;;;;;;4387480;28;659706;-65
2022/12/07 07:39:45;;;;;;;40.23;16.47;;;0.70;99.90;;;;;;4392878;28;659954;-67
2022/12/07 07:42:32;;;;;;;38.80;17.40;;;0.70;99.90;;;;;;4397257;28;660401;-66
2022/12/07 07:45:21;;;;;;;44.90;17.80;;;0.70;99.90;;;;;;4385100;28;658890;-67
2022/12/07 07:48:08;;;;;;;33.83;16.00;;;0.70;99.90;;;;;;4392729;28;659141;-66
2022/12/07 07:50:57;;;;;;;34.78;15.57;;;0.70;99.90;;;;;;4380075;28;658563;-67
2022/12/07 07:53:44;;;;;;;34.23;16.33;;;0.80;99.90;;;;;;4392976;28;658389;-65
2022/12/07 07:56:31;;;;;;;34.00;15.65;;;0.70;99.90;;;;;;4377067;28;658583;-66
2022/12/07 07:59:18;;;;;;;21.67;10.37;;;0.80;99.90;;;;;;4395746;28;659037;-65
2022/12/07 08:02:05;;;;;;;34.35;15.40;;;0.80;99.90;;;;;;4374903;28;658648;-66
2022/12/07 08:04:52;;;;;;;30.93;14.87;;;0.70;99.90;;;;;;4397308;28;658462;-66
2022/12/07 08:07:41;;;;;;;16.57;8.23;;;0.80;99.90;;;;;;4388829;28;658313;-66
2022/12/07 08:10:28;;;;;;;27.90;14.30;;;0.80;99.90;;;;;;4370275;28;658663;-66
2022/12/07 08:13:16;;;;;;;31.35;15.55;;;0.80;99.90;;;;;;4368281;28;659019;-66
2022/12/07 08:16:04;;;;;;;28.37;10.67;;;0.80;99.90;;;;;;4391114;28;660162;-66
2022/12/07 08:18:51;;;;;;;22.83;10.67;;;0.80;99.90;;;;;;4370178;28;660133;-66
2022/12/07 08:21:38;;;;;;;30.10;14.63;;;0.90;99.90;;;;;;4393097;28;659373;-66
2022/12/07 08:24:27;;;;;;;20.87;10.00;;;0.90;99.90;;;;;;4374368;28;658778;-67
2022/12/07 08:27:14;;;;;;;25.27;12.07;;;0.90;99.90;;;;;;4391007;28;658777;-66
2022/12/07 08:30:01;;;;;;;26.47;11.40;;;0.80;99.90;;;;;;4379248;28;658529;-67
2022/12/07 08:32:49;;;;;;;25.27;13.30;;;0.80;99.90;;;;;;4388182;28;658451;-66
2022/12/07 08:35:36;;;;;;;25.73;11.93;;;0.70;99.90;;;;;;4369145;28;658888;-66
2022/12/07 08:38:23;;;;;;;29.47;14.00;;;0.80;99.90;;;;;;4390316;28;659509;-66
2022/12/07 08:41:12;;;;;;;29.87;14.07;;;0.90;99.90;;;;;;4373819;28;658797;-67
2022/12/07 08:43:59;;;;;;;28.83;14.23;;;0.90;99.90;;;;;;4411012;28;658608;-66
2022/12/07 08:46:47;;;;;;;25.48;12.52;;;0.90;99.90;;;;;;4382036;28;659034;-66
2022/12/07 08:49:35;;;;;;;28.60;14.80;;;0.90;99.90;;;;;;4404436;28;658853;-67
2022/12/07 08:52:22;;;;;;;36.27;15.37;;;0.90;99.90;;;;;;4382222;28;659863;-66
2022/12/07 08:55:10;;;;;;;33.03;14.73;;;0.90;99.90;;;;;;4406323;28;659215;-66
2022/12/07 08:57:59;;;;;;;31.87;14.53;;;1.00;99.90;;;;;;4383024;28;659418;-66
2022/12/07 09:00:46;;;;;;;33.73;16.17;;;0.90;99.90;;;;;;4537154;28;659639;-66
2022/12/07 09:03:34;;;;;;;117.07;17.00;;;0.90;99.90;;;;;;4724755;28;536982;-66
2022/12/07 09:06:21;;;;;;;33.47;16.60;;;0.90;99.90;;;;;;4388039;28;660313;-66
2022/12/07 09:09:08;;;;;;;33.63;15.87;;;0.80;99.90;;;;;;4410755;28;660090;-66
2022/12/07 09:11:55;;;;;;;26.03;10.73;;;0.70;99.90;;;;;;4391255;28;658472;-67
2022/12/07 09:14:44;;;;;;;38.67;15.77;;;0.80;99.90;;;;;;4414250;28;660326;-66
2022/12/07 09:17:33;;;;;;;31.87;16.13;;;0.70;99.90;;;;;;4385118;28;658418;-67
2022/12/07 09:20:20;;;;;;;33.27;16.10;;;0.70;99.90;;;;;;4388597;28;658639;-67
2022/12/07 09:23:07;;;;;;;35.87;16.33;;;0.80;99.90;;;;;;4410764;28;658494;-66
2022/12/07 09:25:55;;;;;;;32.27;14.90;;;0.90;99.90;;;;;;4412947;28;659041;-67
2022/12/07 09:28:42;;;;;;;31.05;14.68;;;1.00;99.90;;;;;;4409623;28;659812;-66
2022/12/07 09:31:31;;;;;;;34.37;17.00;;;0.90;99.90;;;;;;4406743;28;659260;-66
2022/12/07 09:34:18;;;;;;;39.57;16.53;;;0.80;99.90;;;;;;4387752;28;658962;-66
2022/12/07 09:37:06;;;;;;;36.13;15.17;;;0.80;99.90;;;;;;4390807;28;658834;-66
2022/12/07 09:39:53;;;;;;;20.37;9.87;;;0.90;99.90;;;;;;4408298;28;658990;-66
2022/12/07 09:42:43;;;;;;;39.60;17.00;;;0.90;99.90;;;;;;4391841;28;658004;-67
2022/12/07 09:45:33;;;;;;;32.23;15.93;;;0.80;99.90;;;;;;4389854;28;658683;-67
2022/12/07 09:48:23;;;;;;;32.97;15.33;;;0.80;99.90;;;;;;4387836;28;658604;-67
2022/12/07 09:51:14;;;;;;;34.10;14.90;;;0.90;99.90;;;;;;4392118;28;658935;-67
2022/12/07 09:54:02;;;;;;;30.87;15.27;;;0.90;99.90;;;;;;4393147;28;658835;-66
2022/12/07 09:56:49;;;;;;;25.83;13.13;;;0.90;99.90;;;;;;4409825;28;659104;-66
2022/12/07 09:59:36;;;;;;;31.63;14.93;;;1.00;99.90;;;;;;4385651;28;658949;-66
2022/12/07 10:02:26;;;;;;;26.73;13.87;;;1.00;99.90;;;;;;4406962;28;659467;-66
2022/12/07 10:05:16;;;;;;;38.75;16.73;;;1.10;99.90;;;;;;4387374;28;659715;-66
2022/12/07 10:08:03;;;;;;;37.27;16.80;;;1.00;99.90;;;;;;4386762;28;659337;-66
2022/12/07 10:10:51;;;;;;;35.97;16.27;;;1.10;99.90;;;;;;4393510;28;658907;-67
2022/12/07 10:13:39;;;;;;;39.83;18.77;;;1.00;99.90;;;;;;4411586;28;659508;-66
2022/12/07 10:16:36;;;;;;;37.73;17.87;;;1.10;99.90;;;;;;4384274;28;659722;-66
2022/12/07 10:19:25;;;;;;;39.53;15.20;;;1.20;99.90;;;;;;4379668;28;659122;-65
2022/12/07 10:22:14;;;;;;;39.27;18.97;;;1.20;99.90;;;;;;4388491;28;660100;-65
2022/12/07 10:25:09;;;;;;;40.78;20.73;;;1.30;99.90;;;;;;4389125;28;661032;-65
2022/12/07 10:28:00;;;;;;;42.87;21.10;;;1.30;99.90;;;;;;4388299;28;658651;-65
2022/12/07 10:30:49;;;;;;;44.07;21.97;;;1.30;99.90;;;;;;4385557;28;659585;-65
2022/12/07 10:33:37;;;;;;;38.97;20.60;;;1.40;99.90;;;;;;4383296;28;658170;-66
2022/12/07 10:36:25;;;;;;;40.37;20.73;;;1.40;99.90;;;;;;4407989;28;658660;-65
2022/12/07 10:39:15;;;;;;;33.00;16.53;;;1.50;99.90;;;;;;4386911;28;660507;-66
2022/12/07 10:42:03;;;;;;;42.28;20.45;;;1.50;99.90;;;;;;4393467;28;658790;-65
2022/12/07 10:44:51;;;;;;;23.17;9.90;;;1.50;99.90;;;;;;4393833;28;658449;-66
2022/12/07 10:47:39;;;;;;;35.60;18.52;;;1.60;99.90;;;;;;4414316;28;658668;-67
2022/12/07 10:50:42;;;;;;;35.23;18.07;;;1.50;99.90;;;;;;4388247;28;659298;-66
2022/12/07 10:53:36;;;;;;;34.60;16.67;;;1.50;99.90;;;;;;4394546;28;660517;-65
2022/12/07 10:56:53;;;;;;;34.60;17.77;;;1.60;99.90;;;;;;4383799;28;659564;-66
2022/12/07 10:59:49;;;;;;;27.63;14.07;;;1.70;99.90;;;;;;4371123;28;658732;-67
2022/12/07 11:02:53;;;;;;;12.98;7.07;;;1.70;99.90;;;;;;4366951;28;658946;-67
2022/12/07 11:05:43;;;;;;;26.77;13.13;;;1.80;99.90;;;;;;4369199;28;658742;-67
2022/12/07 11:08:41;;;;;;;26.23;13.80;;;1.80;99.90;;;;;;4396436;28;658371;-67
2022/12/07 11:11:32;;;;;;;30.57;15.50;;;1.90;99.90;;;;;;4386599;28;658710;-66
2022/12/07 11:14:23;;;;;;;23.67;11.90;;;1.90;99.90;;;;;;4388413;28;658686;-65
2022/12/07 11:17:13;;;;;;;26.30;13.27;;;1.90;99.90;;;;;;4369410;28;659066;-67
2022/12/07 11:20:04;;;;;;;28.83;15.37;;;1.90;99.90;;;;;;4392055;28;658410;-67
2022/12/07 11:22:53;;;;;;;25.63;14.07;;;1.90;99.90;;;;;;4384382;28;658291;-66
2022/12/07 11:25:43;;;;;;;28.97;16.90;;;2.00;99.90;;;;;;4389617;28;658667;-66
2022/12/07 11:28:39;;;;;;;29.60;16.13;;;1.90;99.90;;;;;;4391968;28;658822;-67
2022/12/07 11:31:31;;;;;;;25.55;15.02;;;2.00;99.90;;;;;;4361649;28;659121;-67
2022/12/07 11:34:21;;;;;;;29.90;16.57;;;2.00;99.90;;;;;;4392627;28;659200;-67
2022/12/07 11:37:12;;;;;;;30.20;15.83;;;2.00;99.90;;;;;;4386404;28;659914;-66
2022/12/07 11:40:02;;;;;;;29.00;15.50;;;2.00;99.90;;;;;;4388950;28;658434;-66
2022/12/07 11:42:52;;;;;;;33.40;14.40;;;2.00;99.90;;;;;;4386490;28;658717;-66
2022/12/07 11:45:42;;;;;;;26.50;13.55;;;2.00;99.90;;;;;;4387433;28;658868;-67
2022/12/07 11:48:34;;;;;;;26.53;15.07;;;2.20;99.90;;;;;;4365187;28;658905;-67
2022/12/07 11:51:21;;;;;;;24.03;12.97;;;2.20;99.90;;;;;;4393419;28;658548;-66
2022/12/07 11:54:13;;;;;;;29.30;14.77;;;2.20;99.90;;;;;;4407108;28;658692;-66
2022/12/07 11:57:03;;;;;;;28.10;14.13;;;2.20;99.90;;;;;;4389358;28;658988;-67
2022/12/07 11:59:52;;;;;;;25.67;14.03;;;2.20;99.90;;;;;;4389757;28;658651;-67
2022/12/07 12:02:42;;;;;;;23.17;11.80;;;2.30;99.90;;;;;;4408269;28;658441;-66
2022/12/07 12:05:31;;;;;;;16.63;9.63;;;2.40;99.90;;;;;;4383566;28;658523;-66
2022/12/07 12:08:21;;;;;;;15.30;9.17;;;2.30;99.90;;;;;;4388780;28;658171;-66
2022/12/07 12:11:12;;;;;;;19.17;10.77;;;2.30;99.90;;;;;;4387414;28;658426;-65
2022/12/07 12:14:32;;;;;;;15.77;7.60;;;2.40;99.90;;;;;;4383313;28;659419;-66
2022/12/07 12:17:36;;;;;;;15.37;8.70;;;2.40;99.90;;;;;;4390208;28;658444;-65
2022/12/07 12:20:24;;;;;;;15.33;8.73;;;2.40;99.90;;;;;;4388143;28;658046;-65
2022/12/07 12:23:14;;;;;;;19.67;10.57;;;2.30;99.90;;;;;;4392980;28;657585;-66
2022/12/07 12:26:02;;;;;;;17.60;9.17;;;2.40;99.90;;;;;;4388764;28;658693;-66
2022/12/07 12:28:54;;;;;;;13.40;7.32;;;2.40;99.90;;;;;;4407852;28;658045;-67
2022/12/07 12:31:42;;;;;;;12.10;7.30;;;2.40;99.90;;;;;;4388823;28;657678;-65
2022/12/07 12:34:34;;;;;;;20.73;10.90;;;2.40;99.90;;;;;;4410522;28;658133;-66
2022/12/07 12:37:44;;;;;;;20.50;11.37;;;2.30;99.90;;;;;;4389239;28;658452;-66
2022/12/07 12:40:45;;;;;;;21.43;12.17;;;2.40;99.90;;;;;;4392318;28;659117;-66
2022/12/07 12:43:52;;;;;;;13.77;7.70;;;2.40;99.90;;;;;;4360331;28;659619;-66
2022/12/07 12:46:46;;;;;;;19.23;11.37;;;2.50;99.90;;;;;;4385295;28;658524;-66
2022/12/07 12:49:38;;;;;;;20.13;11.23;;;2.70;99.90;;;;;;4388659;28;659003;-65
2022/12/07 12:52:51;;;;;;;16.47;8.57;;;2.70;99.90;;;;;;4385051;28;658583;-66
2022/12/07 12:55:59;;;;;;;15.60;8.47;;;2.60;99.90;;;;;;4387413;28;658001;-66
2022/12/07 12:58:47;;;;;;;15.43;7.90;;;2.60;99.90;;;;;;4392874;28;657576;-66
2022/12/07 13:01:41;;;;;;;14.37;8.13;;;2.50;99.90;;;;;;4728039;28;658790;-66
2022/12/07 13:04:50;;;;;;;12.43;7.43;;;2.50;99.90;;;;;;4518557;28;534926;-67
2022/12/07 13:07:55;;;;;;;14.03;6.10;;;2.60;99.90;;;;;;4388156;28;658605;-65
2022/12/07 13:10:46;;;;;;;10.10;5.87;;;2.70;99.90;;;;;;4370937;28;657700;-65
2022/12/07 13:13:36;;;;;;;5.87;2.90;;;3.00;99.90;;;;;;4392265;28;658446;-65
2022/12/07 13:16:47;;;;;;;12.03;6.27;;;3.20;99.90;;;;;;4391037;28;657093;-66
2022/12/07 13:19:59;;;;;;;7.40;4.13;;;3.20;99.90;;;;;;4387372;28;658273;-66
2022/12/07 13:22:53;;;;;;;11.93;7.20;;;3.00;99.90;;;;;;4381266;28;657048;-66
2022/12/07 13:25:46;;;;;;;12.93;7.07;;;2.90;99.90;;;;;;4370856;28;657917;-65
2022/12/07 13:28:38;;;;;;;8.23;4.57;;;2.70;99.90;;;;;;4386360;28;658310;-65
2022/12/07 13:31:33;;;;;;;13.37;7.40;;;2.70;99.90;;;;;;4366613;28;656690;-66
2022/12/07 13:34:31;;;;;;;16.50;7.90;;;2.60;99.90;;;;;;4369886;28;658519;-66
2022/12/07 13:37:25;;;;;;;19.73;7.90;;;2.60;99.90;;;;;;4392919;28;658287;-66
2022/12/07 13:40:18;;;;;;;15.30;8.20;;;2.60;99.90;;;;;;4362731;28;658397;-66
2022/12/07 13:43:06;;;;;;;18.00;7.83;;;2.50;99.90;;;;;;4376043;28;657543;-66
2022/12/07 13:45:58;;;;;;;11.77;6.17;;;2.40;99.90;;;;;;4415142;28;658482;-65
2022/12/07 13:48:47;;;;;;;14.97;8.50;;;2.40;99.90;;;;;;4374254;28;657510;-67
2022/12/07 13:51:35;;;;;;;13.17;6.83;;;2.30;99.90;;;;;;4409274;28;658178;-66
2022/12/07 13:54:23;;;;;;;15.23;9.03;;;2.40;99.90;;;;;;4387583;28;659414;-65
2022/12/07 13:57:10;;;;;;;16.17;8.03;;;2.60;99.90;;;;;;4408040;28;657635;-66
2022/12/07 13:59:57;;;;;;;11.67;6.43;;;2.60;99.90;;;;;;4416131;28;657996;-65
2022/12/07 14:02:56;;;;;;;14.50;8.00;;;2.60;99.90;;;;;;4410525;28;658066;-65
2022/12/07 14:05:44;;;;;;;15.17;8.27;;;2.50;99.90;;;;;;4389941;28;658074;-66
2022/12/07 14:08:31;;;;;;;16.80;7.83;;;2.40;99.90;;;;;;4395712;28;657704;-66
2022/12/07 14:11:19;;;;;;;17.40;8.47;;;2.40;99.90;;;;;;4408400;28;659142;-64
2022/12/07 14:14:06;;;;;;;21.57;9.07;;;2.40;99.90;;;;;;4388569;28;658088;-65
2022/12/07 14:17:01;;;;;;;26.43;10.50;;;2.40;99.90;;;;;;4414627;28;657426;-66
2022/12/07 14:19:52;;;;;;;7.32;4.30;;;2.40;99.90;;;;;;4390261;28;660383;-65
2022/12/07 14:22:39;;;;;;;12.10;5.07;;;2.40;99.90;;;;;;4387241;28;657062;-64
2022/12/07 14:25:27;;;;;;;20.98;9.68;;;2.30;99.90;;;;;;4395061;28;657434;-65
2022/12/07 14:28:26;;;;;;;16.30;8.70;;;2.30;99.90;;;;;;4413381;28;657555;-66